createdAt,value
2019-01-13T00:00:44.749Z,72.00
2019-01-13T00:03:19.664Z,72.00
2019-01-13T00:05:54.198Z,72.10
2019-01-13T00:08:29.451Z,72.00
2019-01-13T00:11:03.738Z,71.90
2019-01-13T00:13:43.309Z,72.00
2019-01-13T00:16:23.276Z,72.00
2019-01-13T00:18:58.243Z,72.10
2019-01-13T00:21:32.561Z,72.10
2019-01-13T00:24:07.579Z,72.10
2019-01-13T00:26:42.652Z,72.10
2019-01-13T00:29:16.720Z,72.20
2019-01-13T00:31:52.549Z,72.20
2019-01-13T00:34:28.546Z,72.30
2019-01-13T00:37:10.412Z,72.40
2019-01-13T00:39:45.264Z,72.30
2019-01-13T00:42:19.619Z,72.30
2019-01-13T00:44:56.137Z,72.40
2019-01-13T00:47:30.901Z,72.50
2019-01-13T00:50:08.745Z,72.40
2019-01-13T00:52:45.514Z,72.50
2019-01-13T00:55:19.703Z,72.60
2019-01-13T00:57:54.468Z,72.60
2019-01-13T01:00:33.846Z,72.90
2019-01-13T01:03:08.525Z,72.70
2019-01-13T01:05:42.588Z,72.60
2019-01-13T01:08:17.829Z,72.90
2019-01-13T01:10:52.369Z,72.90
2019-01-13T01:13:26.794Z,72.90
2019-01-13T01:16:01.441Z,72.80
2019-01-13T01:18:36.784Z,72.90
2019-01-13T01:21:11.445Z,72.90
2019-01-13T01:23:45.997Z,72.80
2019-01-13T01:26:20.407Z,72.80
2019-01-13T01:28:55.005Z,72.80
2019-01-13T01:31:29.418Z,73.20
2019-01-13T01:34:04.217Z,73.60
2019-01-13T01:36:38.677Z,72.80
2019-01-13T01:39:14.056Z,72.80
2019-01-13T01:41:48.545Z,72.60
2019-01-13T01:44:23.554Z,72.70
2019-01-13T01:46:58.459Z,72.60
2019-01-13T01:49:32.834Z,72.60
2019-01-13T01:52:07.474Z,72.50
2019-01-13T01:54:42.447Z,72.50
2019-01-13T01:57:16.755Z,72.40
2019-01-13T01:59:51.268Z,73.30
2019-01-13T02:02:26.284Z,72.40
2019-01-13T02:05:00.759Z,72.40
2019-01-13T02:07:35.637Z,72.40
2019-01-13T02:10:12.543Z,72.30
2019-01-13T02:12:47.371Z,72.30
2019-01-13T02:15:29.993Z,72.30
2019-01-13T02:18:05.042Z,73.00
2019-01-13T02:20:39.779Z,72.10
2019-01-13T02:23:14.226Z,72.20
2019-01-13T02:25:48.495Z,72.00
2019-01-13T02:28:23.385Z,72.00
2019-01-13T02:30:58.053Z,72.00
2019-01-13T02:33:32.862Z,72.80
2019-01-13T02:36:07.512Z,71.90
2019-01-13T02:38:42.188Z,71.90
2019-01-13T02:41:16.676Z,71.80
2019-01-13T02:43:51.451Z,71.80
2019-01-13T02:46:25.993Z,71.80
2019-01-13T02:49:00.657Z,71.70
2019-01-13T02:51:35.167Z,71.60
2019-01-13T02:54:09.871Z,71.60
2019-01-13T02:56:45.023Z,71.60
2019-01-13T02:59:19.983Z,71.60
2019-01-13T03:01:53.842Z,71.40
2019-01-13T03:04:28.650Z,71.40
2019-01-13T03:07:03.101Z,71.50
2019-01-13T03:09:38.447Z,71.20
2019-01-13T03:12:13.134Z,71.30
2019-01-13T03:14:47.064Z,71.10
2019-01-13T03:17:21.433Z,71.00
2019-01-13T03:19:56.045Z,71.10
2019-01-13T03:22:30.405Z,70.90
2019-01-13T03:25:05.412Z,70.70
2019-01-13T03:27:39.960Z,70.70
2019-01-13T03:30:17.723Z,70.60
2019-01-13T03:32:52.516Z,70.50
2019-01-13T03:35:27.022Z,70.40
2019-01-13T03:38:01.514Z,70.30
2019-01-13T03:40:37.276Z,70.30
2019-01-13T03:43:11.779Z,70.20
2019-01-13T03:45:46.254Z,70.20
2019-01-13T03:48:20.547Z,70.10
2019-01-13T03:50:56.824Z,70.10
2019-01-13T03:53:32.238Z,70.00
2019-01-13T03:56:06.218Z,70.00
2019-01-13T03:58:41.432Z,69.80
2019-01-13T04:01:18.718Z,69.80
2019-01-13T04:03:52.017Z,69.80
2019-01-13T04:06:27.523Z,69.60
2019-01-13T04:09:02.195Z,69.50
2019-01-13T04:11:36.845Z,69.60
2019-01-13T04:14:11.463Z,70.20
2019-01-13T04:16:46.087Z,70.20
2019-01-13T04:19:20.536Z,69.30
2019-01-13T04:21:55.220Z,69.30
2019-01-13T04:24:29.846Z,69.10
2019-01-13T04:27:04.172Z,69.30
2019-01-13T04:29:38.994Z,69.20
2019-01-13T04:32:13.264Z,69.10
2019-01-13T04:34:47.328Z,68.90
2019-01-13T04:37:22.001Z,68.80
2019-01-13T04:39:56.318Z,68.90
2019-01-13T04:42:30.759Z,68.70
2019-01-13T04:45:05.091Z,68.50
2019-01-13T04:47:39.182Z,68.30
2019-01-13T04:50:14.494Z,68.20
2019-01-13T04:52:49.223Z,68.20
2019-01-13T04:55:23.404Z,68.00
2019-01-13T04:57:59.916Z,68.00
2019-01-13T05:00:34.286Z,68.00
2019-01-13T05:03:08.857Z,67.80
2019-01-13T05:05:43.194Z,67.80
2019-01-13T05:08:17.409Z,68.60
2019-01-13T05:10:51.671Z,67.80
2019-01-13T05:13:25.973Z,67.80
2019-01-13T05:16:00.489Z,67.90
2019-01-13T05:18:34.957Z,67.80
2019-01-13T05:21:10.329Z,67.80
2019-01-13T05:23:44.669Z,67.80
2019-01-13T05:26:19.640Z,67.80
2019-01-13T05:28:54.249Z,68.70
2019-01-13T05:31:28.734Z,67.90
2019-01-13T05:34:03.198Z,67.80
2019-01-13T05:36:37.582Z,67.80
2019-01-13T05:39:12.878Z,67.80
2019-01-13T05:41:47.217Z,67.70
2019-01-13T05:44:21.813Z,67.70
2019-01-13T05:46:56.511Z,67.70
2019-01-13T05:49:31.067Z,68.50
2019-01-13T05:52:04.813Z,67.70
2019-01-13T05:54:39.873Z,67.70
2019-01-13T05:57:14.411Z,67.70
2019-01-13T05:59:49.175Z,67.80
2019-01-13T06:02:24.110Z,67.90
2019-01-13T06:04:58.727Z,67.70
2019-01-13T06:07:33.126Z,67.80
2019-01-13T06:10:09.428Z,67.80
2019-01-13T06:12:44.282Z,68.00
2019-01-13T06:15:20.459Z,67.80
2019-01-13T06:17:55.327Z,67.80
2019-01-13T06:20:30.591Z,67.80
2019-01-13T06:23:04.960Z,67.70
2019-01-13T06:25:39.592Z,67.80
2019-01-13T06:28:14.242Z,67.80
2019-01-13T06:30:48.817Z,67.90
2019-01-13T06:33:23.308Z,67.80
2019-01-13T06:35:59.419Z,67.80
2019-01-13T06:38:33.976Z,67.80
2019-01-13T06:41:08.151Z,67.80
2019-01-13T06:43:42.189Z,67.80
2019-01-13T06:46:16.222Z,67.70
2019-01-13T06:48:50.707Z,67.70
2019-01-13T06:51:25.458Z,67.70
2019-01-13T06:53:59.795Z,67.60
2019-01-13T06:56:34.228Z,67.60
2019-01-13T06:59:09.124Z,67.60
2019-01-13T07:01:44.888Z,67.80
2019-01-13T07:04:19.574Z,67.60
2019-01-13T07:06:53.918Z,67.60
2019-01-13T07:09:28.879Z,67.70
2019-01-13T07:12:03.210Z,67.70
2019-01-13T07:14:38.356Z,67.60
2019-01-13T07:17:12.879Z,67.70
2019-01-13T07:19:47.411Z,67.70
2019-01-13T07:22:22.395Z,67.70
2019-01-13T07:24:56.646Z,67.60
2019-01-13T07:27:31.087Z,67.70
2019-01-13T07:30:05.430Z,67.80
2019-01-13T07:32:40.182Z,67.70
2019-01-13T07:35:14.650Z,67.70
2019-01-13T07:37:48.938Z,67.70
2019-01-13T07:40:24.674Z,67.70
2019-01-13T07:42:59.725Z,67.60
2019-01-13T07:45:34.455Z,67.70
2019-01-13T07:48:08.703Z,67.70
2019-01-13T07:50:42.818Z,67.60
2019-01-13T07:53:17.079Z,67.80
2019-01-13T07:55:51.926Z,67.60
2019-01-13T07:58:26.396Z,67.60
2019-01-13T08:01:00.264Z,67.60
2019-01-13T08:03:35.495Z,67.80
2019-01-13T08:06:09.750Z,67.60
2019-01-13T08:08:44.558Z,67.60
2019-01-13T08:11:18.974Z,67.60
2019-01-13T08:13:53.489Z,67.60
2019-01-13T08:16:27.950Z,67.50
2019-01-13T08:19:02.150Z,67.50
2019-01-13T08:21:37.508Z,67.60
2019-01-13T08:24:12.316Z,67.20
2019-01-13T08:26:47.013Z,67.50
2019-01-13T08:29:21.562Z,67.00
2019-01-13T08:31:56.021Z,67.40
2019-01-13T08:34:30.775Z,67.50
2019-01-13T08:37:06.047Z,67.40
2019-01-13T08:39:41.165Z,67.40
2019-01-13T08:42:15.948Z,67.50
2019-01-13T08:44:50.785Z,67.40
2019-01-13T08:47:24.749Z,67.30
2019-01-13T08:49:59.517Z,67.40
2019-01-13T08:52:33.356Z,67.30
2019-01-13T08:55:08.085Z,67.20
2019-01-13T08:57:42.448Z,67.20
2019-01-13T09:00:38.581Z,67.30
2019-01-13T09:03:14.087Z,67.20
2019-01-13T09:05:48.958Z,67.10
2019-01-13T09:08:23.532Z,67.10
2019-01-13T09:10:57.797Z,67.10
2019-01-13T09:13:32.653Z,67.00
2019-01-13T09:16:06.905Z,67.00
2019-01-13T09:18:41.403Z,67.10
2019-01-13T09:21:17.478Z,67.00
2019-01-13T09:23:52.581Z,66.90
2019-01-13T09:26:27.241Z,67.00
2019-01-13T09:29:02.005Z,66.90
2019-01-13T09:31:36.406Z,66.90
2019-01-13T09:34:11.013Z,67.10
2019-01-13T09:36:45.744Z,66.80
2019-01-13T09:39:19.915Z,66.80
2019-01-13T09:41:54.642Z,66.70
2019-01-13T09:44:29.377Z,66.70
2019-01-13T09:47:04.021Z,66.70
2019-01-13T09:49:38.475Z,66.70
2019-01-13T09:52:13.613Z,66.60
2019-01-13T09:54:47.672Z,66.90
2019-01-13T09:57:22.515Z,66.60
2019-01-13T09:59:57.156Z,66.60
2019-01-13T10:02:32.033Z,66.60
2019-01-13T10:05:06.458Z,66.60
2019-01-13T10:07:42.080Z,66.50
2019-01-13T10:10:16.637Z,66.50
2019-01-13T10:12:50.906Z,66.50
2019-01-13T10:15:26.059Z,66.50
2019-01-13T10:18:00.698Z,66.60
2019-01-13T10:20:36.322Z,66.50
2019-01-13T10:23:11.288Z,66.60
2019-01-13T10:25:46.210Z,66.70
2019-01-13T10:28:20.833Z,66.80
2019-01-13T10:30:55.274Z,67.60
2019-01-13T10:33:30.291Z,66.80
2019-01-13T10:36:04.685Z,66.70
2019-01-13T10:38:39.538Z,66.90
2019-01-13T10:41:13.760Z,66.80
2019-01-13T10:43:48.620Z,66.90
2019-01-13T10:46:22.741Z,66.80
2019-01-13T10:48:57.453Z,66.90
2019-01-13T10:51:32.067Z,66.90
2019-01-13T10:54:09.315Z,67.00
2019-01-13T10:56:42.328Z,66.80
2019-01-13T10:59:16.547Z,66.90
2019-01-13T11:01:51.211Z,67.00
2019-01-13T11:04:25.304Z,67.10
2019-01-13T11:07:00.061Z,66.90
2019-01-13T11:09:34.611Z,66.90
2019-01-13T11:12:08.928Z,66.90
2019-01-13T11:14:43.773Z,67.00
2019-01-13T11:17:18.091Z,67.90
2019-01-13T11:19:52.711Z,66.70
2019-01-13T11:22:27.097Z,66.60
2019-01-13T11:25:01.666Z,67.10
2019-01-13T11:27:36.665Z,67.10
2019-01-13T11:30:13.149Z,67.20
2019-01-13T11:32:47.681Z,67.20
2019-01-13T11:35:21.717Z,67.10
2019-01-13T11:37:56.604Z,67.30
2019-01-13T11:40:32.202Z,67.20
2019-01-13T11:43:07.601Z,67.30
2019-01-13T11:45:41.847Z,67.40
2019-01-13T11:48:16.398Z,67.30
2019-01-13T11:50:50.807Z,67.30
2019-01-13T11:53:25.130Z,67.40
2019-01-13T11:56:00.107Z,67.30
2019-01-13T11:58:34.684Z,67.30
2019-01-13T12:01:09.135Z,67.40
2019-01-13T12:03:43.877Z,67.40
2019-01-13T12:06:18.797Z,67.50
2019-01-13T12:08:55.811Z,67.60
2019-01-13T12:11:30.331Z,67.50
2019-01-13T12:14:05.140Z,67.60
2019-01-13T12:16:40.793Z,67.60
2019-01-13T12:19:15.343Z,67.60
2019-01-13T12:21:49.522Z,67.60
2019-01-13T12:24:24.801Z,67.70
2019-01-13T12:26:59.443Z,68.50
2019-01-13T12:29:34.162Z,67.90
2019-01-13T12:32:08.642Z,67.80
2019-01-13T12:34:43.327Z,68.00
2019-01-13T12:37:17.580Z,67.80
2019-01-13T12:39:51.715Z,67.90
2019-01-13T12:42:27.395Z,67.80
2019-01-13T12:45:01.594Z,67.90
2019-01-13T12:47:35.621Z,67.90
2019-01-13T12:50:11.935Z,68.80
2019-01-13T12:52:46.143Z,68.00
2019-01-13T12:55:20.477Z,68.00
2019-01-13T12:57:55.367Z,68.10
2019-01-13T13:00:30.653Z,68.80
2019-01-13T13:03:05.044Z,68.20
2019-01-13T13:05:39.335Z,68.10
2019-01-13T13:08:14.209Z,68.30
2019-01-13T13:10:54.482Z,68.30
2019-01-13T13:13:29.372Z,68.40
2019-01-13T13:16:03.540Z,68.20
2019-01-13T13:18:38.294Z,68.30
2019-01-13T13:21:15.008Z,68.40
2019-01-13T13:23:49.784Z,68.30
2019-01-13T13:26:23.945Z,67.80
2019-01-13T13:28:58.513Z,68.50
2019-01-13T13:31:32.397Z,68.40
2019-01-13T13:34:07.222Z,68.50
2019-01-13T13:36:41.649Z,68.50
2019-01-13T13:39:16.525Z,68.60
2019-01-13T13:41:50.786Z,68.70
2019-01-13T13:44:25.359Z,68.50
2019-01-13T13:46:59.635Z,68.60
2019-01-13T13:49:34.050Z,68.70
2019-01-13T13:52:08.357Z,68.70
2019-01-13T13:54:42.342Z,68.80
2019-01-13T13:57:16.478Z,68.80
2019-01-13T13:59:50.750Z,68.70
2019-01-13T14:02:25.121Z,68.80
2019-01-13T14:04:59.982Z,68.80
2019-01-13T14:07:34.626Z,68.80
2019-01-13T14:10:10.128Z,68.90
2019-01-13T14:12:44.752Z,68.90
2019-01-13T14:15:19.134Z,68.90
2019-01-13T14:17:53.548Z,68.90
2019-01-13T14:20:27.990Z,68.90
2019-01-13T14:23:02.620Z,68.90
2019-01-13T14:25:37.169Z,68.90
2019-01-13T14:28:11.837Z,69.00
2019-01-13T14:30:46.708Z,69.10
2019-01-13T14:33:21.069Z,69.00
2019-01-13T14:35:55.725Z,69.10
2019-01-13T14:38:29.801Z,69.20
2019-01-13T14:41:04.288Z,69.10
2019-01-13T14:43:39.098Z,69.10
2019-01-13T14:46:13.288Z,69.10
2019-01-13T14:48:48.130Z,69.10
2019-01-13T14:51:22.512Z,69.20
2019-01-13T14:53:56.992Z,69.10
2019-01-13T14:56:31.877Z,69.20
2019-01-13T14:59:06.563Z,69.20
2019-01-13T15:01:40.789Z,69.20
2019-01-13T15:04:15.712Z,69.30
2019-01-13T15:06:50.156Z,69.40
2019-01-13T15:09:24.788Z,69.30
2019-01-13T15:11:59.359Z,69.30
2019-01-13T15:14:34.142Z,70.00
2019-01-13T15:17:08.520Z,69.30
2019-01-13T15:19:42.476Z,69.40
2019-01-13T15:22:17.194Z,69.40
2019-01-13T15:24:51.379Z,69.60
2019-01-13T15:27:25.545Z,69.40
2019-01-13T15:30:00.568Z,69.40
2019-01-13T15:32:35.740Z,69.60
2019-01-13T15:35:12.887Z,69.70
2019-01-13T15:37:47.158Z,69.50
2019-01-13T15:40:22.630Z,69.50
2019-01-13T15:42:57.260Z,69.60
2019-01-13T15:45:31.901Z,69.60
2019-01-13T15:48:06.768Z,69.60
2019-01-13T15:50:41.579Z,69.70
2019-01-13T15:53:16.291Z,69.70
2019-01-13T15:55:51.254Z,69.80
2019-01-13T15:58:25.997Z,69.80
2019-01-13T16:01:00.941Z,69.80
2019-01-13T16:03:35.464Z,69.80
2019-01-13T16:06:10.204Z,69.80
2019-01-13T16:08:44.487Z,69.80
2019-01-13T16:11:19.489Z,69.80
2019-01-13T16:13:54.396Z,69.90
2019-01-13T16:16:28.972Z,70.00
2019-01-13T16:19:03.779Z,69.80
2019-01-13T16:21:38.400Z,69.80
2019-01-13T16:24:13.021Z,70.00
2019-01-13T16:26:48.012Z,69.80
2019-01-13T16:29:22.374Z,69.90
2019-01-13T16:31:57.919Z,69.90
2019-01-13T16:34:32.109Z,70.00
2019-01-13T16:37:07.028Z,69.90
2019-01-13T16:39:41.832Z,70.00
2019-01-13T16:42:16.768Z,69.90
2019-01-13T16:44:51.575Z,70.00
2019-01-13T16:47:26.487Z,69.90
2019-01-13T16:50:01.084Z,70.10
2019-01-13T16:52:36.095Z,70.00
2019-01-13T16:55:12.607Z,69.90
2019-01-13T16:57:47.223Z,69.90
2019-01-13T17:00:23.622Z,69.90
2019-01-13T17:02:58.433Z,70.00
2019-01-13T17:05:33.415Z,70.10
2019-01-13T17:08:07.856Z,70.00
2019-01-13T17:10:42.235Z,70.00
2019-01-13T17:13:17.245Z,70.00
2019-01-13T17:15:51.393Z,70.00
2019-01-13T17:18:26.025Z,70.00
2019-01-13T17:21:00.995Z,70.00
2019-01-13T17:23:35.441Z,70.00
2019-01-13T17:26:10.186Z,70.10
2019-01-13T17:28:45.604Z,70.10
2019-01-13T17:31:20.628Z,70.00
2019-01-13T17:33:55.338Z,70.00
2019-01-13T17:36:30.281Z,70.20
2019-01-13T17:39:06.008Z,70.10
2019-01-13T17:41:40.760Z,70.10
2019-01-13T17:44:15.866Z,70.10
2019-01-13T17:46:50.781Z,70.10
2019-01-13T17:49:25.112Z,70.10
2019-01-13T17:51:59.263Z,70.10
2019-01-13T17:54:34.257Z,70.10
2019-01-13T17:57:08.643Z,70.10
2019-01-13T17:59:43.543Z,70.10
2019-01-13T18:02:19.414Z,70.30
2019-01-13T18:04:54.833Z,70.20
2019-01-13T18:07:28.962Z,70.20
2019-01-13T18:10:03.529Z,70.20
2019-01-13T18:12:38.620Z,70.20
2019-01-13T18:15:13.285Z,70.20
2019-01-13T18:17:47.751Z,70.20
2019-01-13T18:20:23.191Z,70.30
2019-01-13T18:22:57.987Z,70.30
2019-01-13T18:25:32.362Z,70.20
2019-01-13T18:28:08.433Z,70.20
2019-01-13T18:30:43.107Z,70.30
2019-01-13T18:33:18.189Z,70.20
2019-01-13T18:35:52.795Z,70.20
2019-01-13T18:38:27.788Z,70.30
2019-01-13T18:41:03.351Z,70.40
2019-01-13T18:43:38.269Z,70.20
2019-01-13T18:46:12.741Z,70.40
2019-01-13T18:48:47.507Z,70.40
2019-01-13T18:51:21.785Z,71.40
2019-01-13T18:53:56.771Z,70.30
2019-01-13T18:56:31.350Z,70.50
2019-01-13T18:59:06.200Z,70.60
2019-01-13T19:01:40.835Z,70.50
2019-01-13T19:04:15.550Z,70.60
2019-01-13T19:06:50.210Z,70.40
2019-01-13T19:09:24.752Z,71.30
2019-01-13T19:11:59.681Z,70.60
2019-01-13T19:14:45.526Z,70.50
2019-01-13T19:17:21.785Z,70.60
2019-01-13T19:20:20.366Z,70.60
2019-01-13T19:22:57.193Z,70.60
2019-01-13T19:25:37.937Z,70.60
2019-01-13T19:28:12.292Z,70.70
2019-01-13T19:30:46.834Z,70.70
2019-01-13T19:33:22.117Z,70.80
2019-01-13T19:35:56.821Z,70.70
2019-01-13T19:38:31.458Z,70.70
2019-01-13T19:41:06.763Z,70.70
2019-01-13T19:43:41.651Z,70.80
2019-01-13T19:46:15.947Z,70.90
2019-01-13T19:48:50.983Z,70.80
2019-01-13T19:51:25.602Z,70.70
2019-01-13T19:53:59.824Z,70.80
2019-01-13T19:56:34.150Z,70.80
2019-01-13T19:59:08.811Z,70.80
2019-01-13T20:01:43.429Z,70.80
2019-01-13T20:04:19.650Z,70.90
2019-01-13T20:06:54.071Z,70.80
2019-01-13T20:09:30.979Z,70.80
2019-01-13T20:12:04.859Z,70.90
2019-01-13T20:14:39.818Z,70.80
2019-01-13T20:17:14.281Z,70.90
2019-01-13T20:19:48.792Z,70.80
2019-01-13T20:22:23.274Z,70.90
2019-01-13T20:24:57.936Z,70.90
2019-01-13T20:27:32.256Z,71.00
2019-01-13T20:30:06.431Z,70.90
2019-01-13T20:32:41.009Z,71.00
2019-01-13T20:35:19.183Z,71.00
2019-01-13T20:37:50.646Z,71.00
2019-01-13T20:40:25.035Z,71.00
2019-01-13T20:42:59.375Z,71.10
2019-01-13T20:45:36.492Z,71.00
2019-01-13T20:48:11.294Z,71.10
2019-01-13T20:50:46.273Z,71.00
2019-01-13T20:53:20.757Z,71.10
2019-01-13T20:55:55.273Z,71.90
2019-01-13T20:58:30.038Z,71.10
2019-01-13T21:01:04.487Z,71.60
2019-01-13T21:03:39.105Z,71.10
2019-01-13T21:06:13.634Z,71.20
2019-01-13T21:08:48.329Z,71.20
2019-01-13T21:11:23.184Z,71.20
2019-01-13T21:13:57.674Z,71.30
2019-01-13T21:16:34.796Z,71.10
2019-01-13T21:19:09.185Z,71.20
2019-01-13T21:21:43.443Z,71.20
2019-01-13T21:24:18.114Z,71.20
2019-01-13T21:26:52.867Z,71.20
2019-01-13T21:29:27.409Z,71.40
2019-01-13T21:32:01.255Z,71.30
2019-01-13T21:34:35.579Z,71.30
2019-01-13T21:37:10.149Z,71.30
2019-01-13T21:39:44.559Z,71.50
2019-01-13T21:42:19.100Z,71.30
2019-01-13T21:44:54.000Z,71.30
2019-01-13T21:47:28.392Z,71.40
2019-01-13T21:50:03.377Z,71.50
2019-01-13T21:52:37.645Z,71.30
2019-01-13T21:55:12.011Z,71.30
2019-01-13T21:57:46.661Z,71.30
2019-01-13T22:00:25.912Z,71.30
2019-01-13T22:03:00.604Z,71.40
2019-01-13T22:05:41.062Z,71.40
2019-01-13T22:08:11.567Z,71.40
2019-01-13T22:10:45.940Z,71.40
2019-01-13T22:13:20.596Z,71.40
2019-01-13T22:15:55.318Z,71.50
2019-01-13T22:18:30.358Z,71.40
2019-01-13T22:21:04.798Z,72.30
2019-01-13T22:23:39.481Z,71.40
2019-01-13T22:26:14.100Z,71.40
2019-01-13T22:28:48.402Z,71.50
2019-01-13T22:31:23.118Z,71.40
2019-01-13T22:33:57.854Z,71.50
2019-01-13T22:36:32.043Z,71.40
2019-01-13T22:39:09.457Z,71.50
2019-01-13T22:41:43.991Z,71.50
2019-01-13T22:44:18.244Z,71.50
2019-01-13T22:46:52.596Z,71.50
2019-01-13T22:49:27.489Z,71.60
2019-01-13T22:52:02.143Z,71.50
2019-01-13T22:54:36.547Z,71.50
2019-01-13T22:57:11.624Z,71.40
2019-01-13T22:59:46.127Z,71.60
2019-01-13T23:02:20.784Z,71.40
2019-01-13T23:04:55.248Z,71.60
2019-01-13T23:07:29.837Z,71.60
2019-01-13T23:10:04.267Z,71.70
2019-01-13T23:12:38.829Z,71.50
2019-01-13T23:15:13.429Z,71.60
2019-01-13T23:17:48.280Z,71.60
2019-01-13T23:20:22.374Z,71.50
2019-01-13T23:22:56.806Z,71.60
2019-01-13T23:25:31.105Z,71.70
2019-01-13T23:28:05.859Z,71.70
2019-01-13T23:30:40.777Z,71.70
2019-01-13T23:33:15.514Z,71.70
2019-01-13T23:35:49.852Z,71.70
2019-01-13T23:38:24.365Z,71.80
2019-01-13T23:40:59.008Z,71.80
2019-01-13T23:43:33.592Z,71.90
2019-01-13T23:46:07.743Z,72.70
2019-01-13T23:48:42.168Z,72.00
2019-01-13T23:51:17.367Z,71.90
2019-01-13T23:53:51.808Z,71.90
2019-01-13T23:56:26.070Z,72.00
2019-01-13T23:59:00.174Z,71.90
